Ana Sayfa
METAR-TAF:

METAR-TAF

Havaalanları :

Medan, Kuzey Sumatra, Endonezya

Enlem: 03-34N, Boylam: 098-41E, yükseklik: 25 m

METAR: eksik

Saat: 22:03 (15:03 UTC)

Tahmin

Rapor saat 11:00 UTC de 4 saat ve 3 dakika önce yapıldı.
Ayın 18'si saat 12 UTC'den ayın 19'si saat 12 UTC'ye kadar geçerli Tahmin
Rüzgar değişken yönden 5 kt
Görüş mesafesi: 4000 m
1700 ft yükseklikte az bulutlu, Kümülonimbus.
1800 ft yükseklikte parçalı bulutlu
Toz Pusu
Geçici
ayın 18'si saat 13 UTC'den ayın 18'si saat 17 UTC'ye kadar
gök gürültülü fırtına, hafif yağmur
Dönüşüyor
ayın 19'si saat 02 UTC'den ayın 19'si saat 04 UTC'ye kadar
Rüzgar doğudan 10 kt
Görüş mesafesi: 9000 m

TAF: WIMM 181100Z 1812/1912 VRB05KT 4000 HZ FEW017CB SCT018 TEMPO 1813/1817 -TSRA BECMG 1902/1904 10010KT 9000 NSW

4.000'den fazla havaalanı için hava durumu gözlemleri ve tahminleri (METAR ve TAF raporları).

Kullanılabilir istasyonlar harita üzerinde sarı ve kırmızı noktalarla gösterilir.

İstasyonun adını görmek için fareyi noktanın üzerinde gezdirin.

Sonrasında hava gözlem ve tahminlerini görmek için tıklayın.

Haritayı değiştirmek için: yaklaştırmak için siyah artı işaretli yeşil düğmeye ve uzaklaştırmak için de eksi işaretli düğmeye hızla tıklayın; bitişik haritalar için yeşil okları kullanın.


METAR-TAF: